Garibaldi, Canada
Current Conditions -  °F | °C
As of 5:00 PM on Saturday 22 Nov 2014 (Local Time) from CYVR Reporting Station
Broken Clouds Broken Clouds  
Wind Chill: 45°   Ceiling: 20000
Heat Index: 45°   Visibility: 30mi
Dew Point: 41°   Wind: 2mph
Humidity: 87%   Direction: NA
Pressure: 29.94"   Gusts: NA
Location:  49.98°N, 123.15°W
Report Text: CYVR 230100Z VRB02KT 30SM FEW041 SCT120 BKN200 07/05 A2994 RMK SC2AC1CI2 SLP137
Loading
Personal Weather Stations






























Interactive Weather Map New forecast layout! Learn more

10-Day Weather Forecast

Advertisements
Track Severe Weather on mobile